createdAt,value
2022-08-16T00:01:41.001Z,8.32
2022-08-16T00:04:07.677Z,9.77
2022-08-16T00:06:36.608Z,9.98
2022-08-16T00:09:06.347Z,9.13
2022-08-16T00:11:32.778Z,9.52
2022-08-16T00:13:59.259Z,8.98
2022-08-16T00:17:06.215Z,9.75
2022-08-16T00:19:19.767Z,10.47
2022-08-16T00:21:53.322Z,11.20
2022-08-16T00:24:32.777Z,9.60
2022-08-16T00:27:00.379Z,10.35
2022-08-16T00:29:29.671Z,10.50
2022-08-16T00:32:01.213Z,10.10
2022-08-16T00:34:44.057Z,10.48
2022-08-16T00:37:17.334Z,10.67
2022-08-16T00:39:45.625Z,9.65
2022-08-16T00:42:13.738Z,9.43
2022-08-16T00:44:41.929Z,10.95
2022-08-16T00:47:12.341Z,9.52
2022-08-16T00:49:39.747Z,10.15
2022-08-16T00:52:30.216Z,10.18
2022-08-16T00:54:57.665Z,10.48
2022-08-16T00:57:24.223Z,9.30
2022-08-16T00:59:58.913Z,11.50
2022-08-16T01:02:31.811Z,9.25
2022-08-16T01:05:09.346Z,9.63
2022-08-16T01:07:51.074Z,10.20
2022-08-16T01:10:18.856Z,9.38
2022-08-16T01:12:45.310Z,9.67
2022-08-16T01:15:13.050Z,9.83
2022-08-16T01:17:40.167Z,9.63
2022-08-16T01:20:23.826Z,8.83
2022-08-16T01:23:08.713Z,9.43
2022-08-16T01:25:36.659Z,9.80
2022-08-16T01:28:06.055Z,10.03
2022-08-16T01:30:39.784Z,10.77
2022-08-16T01:33:16.046Z,10.37
2022-08-16T01:35:52.901Z,10.70
2022-08-16T01:38:20.060Z,10.63
2022-08-16T01:40:47.182Z,10.87
2022-08-16T01:43:13.752Z,10.87
2022-08-16T01:45:41.762Z,10.27
2022-08-16T01:48:19.527Z,10.73
2022-08-16T01:51:08.193Z,11.20
2022-08-16T01:53:33.666Z,11.83
2022-08-16T01:56:00.098Z,11.30
2022-08-16T01:58:26.835Z,10.43
2022-08-16T02:00:54.925Z,11.67
2022-08-16T02:03:24.551Z,11.60
2022-08-16T02:05:53.237Z,12.27
2022-08-16T02:08:33.513Z,12.77
2022-08-16T02:11:00.952Z,11.10
2022-08-16T02:13:27.602Z,11.33
2022-08-16T02:15:54.283Z,11.37
2022-08-16T02:18:21.391Z,12.60
2022-08-16T02:20:49.712Z,12.17
2022-08-16T02:23:18.878Z,12.50
2022-08-16T02:25:50.635Z,11.80
2022-08-16T02:28:19.659Z,12.47
2022-08-16T02:30:50.644Z,12.00
2022-08-16T02:33:17.705Z,11.20
2022-08-16T02:35:54.308Z,12.67
2022-08-16T02:38:25.533Z,11.80
2022-08-16T02:40:54.699Z,13.00
2022-08-16T02:43:21.508Z,11.77
2022-08-16T02:45:53.404Z,12.87
2022-08-16T02:48:28.240Z,13.70
2022-08-16T02:51:10.272Z,13.07
2022-08-16T02:53:38.515Z,12.97
2022-08-16T02:56:09.897Z,13.60
2022-08-16T02:58:36.683Z,13.10
2022-08-16T03:01:03.326Z,13.57
2022-08-16T03:04:29.029Z,12.90
2022-08-16T03:06:42.285Z,13.83
2022-08-16T03:09:10.697Z,12.37
2022-08-16T03:11:40.199Z,11.53
2022-08-16T03:14:07.583Z,12.00
2022-08-16T03:16:38.759Z,13.67
2022-08-16T03:19:08.736Z,12.80
2022-08-16T03:21:37.841Z,13.03
2022-08-16T03:24:06.064Z,12.00
2022-08-16T03:26:52.451Z,11.43
2022-08-16T03:29:18.898Z,12.80
2022-08-16T03:31:45.330Z,13.47
2022-08-16T03:34:18.943Z,17.07
2022-08-16T03:36:45.770Z,21.70
2022-08-16T03:39:15.220Z,14.77
2022-08-16T03:41:50.101Z,11.70
2022-08-16T03:44:43.838Z,12.17
2022-08-16T03:47:03.894Z,13.63
2022-08-16T03:49:35.778Z,12.67
2022-08-16T03:52:03.895Z,12.13
2022-08-16T03:54:30.303Z,12.87
2022-08-16T03:57:00.743Z,12.20
2022-08-16T03:59:29.769Z,14.27
2022-08-16T04:01:56.820Z,18.27
2022-08-16T04:04:25.087Z,14.57
2022-08-16T04:07:00.611Z,14.10
2022-08-16T04:09:29.665Z,16.10
2022-08-16T04:11:56.391Z,13.00
2022-08-16T04:14:31.145Z,14.27
2022-08-16T04:17:01.684Z,12.90
2022-08-16T04:19:31.875Z,13.50
2022-08-16T04:21:58.377Z,13.80
2022-08-16T04:24:28.776Z,14.43
2022-08-16T04:26:55.561Z,15.17
2022-08-16T04:29:25.013Z,13.77
2022-08-16T04:31:56.797Z,13.10
2022-08-16T04:34:26.568Z,12.93
2022-08-16T04:36:53.081Z,13.27
2022-08-16T04:39:20.022Z,12.47
2022-08-16T04:41:50.360Z,15.13
2022-08-16T04:44:32.687Z,15.00
2022-08-16T04:47:21.701Z,15.53
2022-08-16T04:49:50.848Z,16.13
2022-08-16T04:52:33.349Z,15.73
2022-08-16T04:55:03.383Z,15.23
2022-08-16T04:57:30.456Z,15.80
2022-08-16T04:59:57.035Z,14.60
2022-08-16T05:02:41.878Z,15.07
2022-08-16T05:05:17.883Z,15.53
2022-08-16T05:07:57.990Z,15.03
2022-08-16T05:10:27.117Z,17.03
2022-08-16T05:12:53.949Z,17.23
2022-08-16T05:15:20.517Z,19.47
2022-08-16T05:17:48.823Z,18.10
2022-08-16T05:20:38.422Z,17.00
2022-08-16T05:23:11.587Z,19.30
2022-08-16T05:25:41.205Z,18.03
2022-08-16T05:28:15.115Z,18.67
2022-08-16T05:30:41.490Z,18.60
2022-08-16T05:33:16.277Z,18.63
2022-08-16T05:35:43.722Z,17.07
2022-08-16T05:38:33.270Z,19.53
2022-08-16T05:40:59.933Z,17.57
2022-08-16T05:43:27.257Z,17.50
2022-08-16T05:45:59.362Z,17.70
2022-08-16T05:48:26.841Z,18.07
2022-08-16T05:50:53.866Z,18.27
2022-08-16T05:53:20.564Z,17.47
2022-08-16T05:55:50.978Z,17.30
2022-08-16T05:58:32.025Z,18.20
2022-08-16T06:00:59.663Z,18.27
2022-08-16T06:03:26.091Z,16.33
2022-08-16T06:05:56.066Z,16.87
2022-08-16T06:08:32.555Z,18.43
2022-08-16T06:11:13.322Z,17.70
2022-08-16T06:13:42.005Z,18.27
2022-08-16T06:16:09.212Z,17.35
2022-08-16T06:18:45.302Z,16.27
2022-08-16T06:21:22.881Z,15.33
2022-08-16T06:23:53.964Z,16.07
2022-08-16T06:26:21.117Z,16.80
2022-08-16T06:28:47.569Z,15.98
2022-08-16T06:31:16.307Z,15.05
2022-08-16T06:33:44.643Z,16.02
2022-08-16T06:36:13.981Z,15.40
2022-08-16T06:38:52.314Z,15.27
2022-08-16T06:41:23.119Z,12.35
2022-08-16T06:43:51.116Z,13.13
2022-08-16T06:46:31.375Z,13.00
2022-08-16T06:48:58.481Z,13.00
2022-08-16T06:51:24.988Z,10.90
2022-08-16T06:54:14.110Z,11.05
2022-08-16T06:56:41.062Z,11.10
2022-08-16T06:59:09.071Z,9.27
2022-08-16T07:01:43.353Z,9.55
2022-08-16T07:04:12.807Z,9.50
2022-08-16T07:06:59.686Z,10.60
2022-08-16T07:09:29.792Z,10.07
2022-08-16T07:12:04.765Z,9.85
2022-08-16T07:14:32.730Z,9.65
2022-08-16T07:16:59.745Z,9.65
2022-08-16T07:20:02.014Z,9.27
2022-08-16T07:22:37.156Z,9.88
2022-08-16T07:25:01.408Z,8.23
2022-08-16T07:27:28.268Z,8.30
2022-08-16T07:29:55.602Z,8.65
2022-08-16T07:32:29.396Z,8.27
2022-08-16T07:34:56.385Z,8.25
2022-08-16T07:37:23.276Z,6.97
2022-08-16T07:39:50.619Z,8.48
2022-08-16T07:42:20.144Z,7.68
2022-08-16T07:44:52.665Z,6.93
2022-08-16T07:47:19.157Z,7.40
2022-08-16T07:49:53.023Z,6.75
2022-08-16T07:52:24.483Z,6.07
2022-08-16T07:54:56.130Z,6.63
2022-08-16T07:57:24.212Z,6.45
2022-08-16T07:59:50.913Z,7.10
2022-08-16T08:02:20.128Z,5.55
2022-08-16T08:04:47.265Z,7.18
2022-08-16T08:07:14.528Z,6.20
2022-08-16T08:09:43.239Z,6.88
2022-08-16T08:12:32.576Z,6.65
2022-08-16T08:14:57.066Z,5.50
2022-08-16T08:17:23.583Z,6.43
2022-08-16T08:19:53.108Z,6.88
2022-08-16T08:22:22.253Z,5.93
2022-08-16T08:24:48.861Z,6.75
2022-08-16T08:27:23.122Z,5.65
2022-08-16T08:30:49.058Z,5.95
2022-08-16T08:32:59.837Z,5.45
2022-08-16T08:35:26.942Z,6.78
2022-08-16T08:37:55.246Z,5.72
2022-08-16T08:40:24.772Z,4.80
2022-08-16T08:42:57.860Z,6.68
2022-08-16T08:45:46.696Z,7.03
2022-08-16T08:48:33.123Z,6.32
2022-08-16T08:51:00.611Z,5.93
2022-08-16T08:53:29.932Z,6.10
2022-08-16T08:55:58.785Z,5.75
2022-08-16T08:58:26.024Z,6.05
2022-08-16T09:01:01.287Z,6.15
2022-08-16T09:03:28.135Z,6.30
2022-08-16T09:05:54.540Z,6.60
2022-08-16T09:08:22.184Z,5.15
2022-08-16T09:11:02.148Z,6.15
2022-08-16T09:13:32.869Z,6.25
2022-08-16T09:15:59.381Z,5.30
2022-08-16T09:18:27.168Z,5.97
2022-08-16T09:21:02.798Z,7.40
2022-08-16T09:23:36.463Z,6.40
2022-08-16T09:26:45.984Z,6.53
2022-08-16T09:29:14.528Z,6.60
2022-08-16T09:31:41.102Z,6.75
2022-08-16T09:34:08.076Z,6.40
2022-08-16T09:36:34.730Z,6.38
2022-08-16T09:39:03.529Z,6.68
2022-08-16T09:41:32.817Z,6.20
2022-08-16T09:45:08.977Z,6.18
2022-08-16T09:46:49.375Z,5.75
2022-08-16T09:49:19.713Z,6.10
2022-08-16T09:51:48.001Z,6.13
2022-08-16T09:54:16.867Z,5.43
2022-08-16T09:56:52.430Z,5.63
2022-08-16T09:59:21.019Z,6.00
2022-08-16T10:01:49.782Z,5.38
2022-08-16T10:04:30.199Z,6.07
2022-08-16T10:09:44.998Z,5.43
2022-08-16T10:12:34.011Z,5.25
2022-08-16T10:15:00.424Z,6.00
2022-08-16T10:17:27.052Z,5.20
2022-08-16T10:19:55.468Z,5.55
2022-08-16T10:22:22.885Z,5.63
2022-08-16T10:24:56.051Z,5.07
2022-08-16T10:27:30.040Z,5.40
2022-08-16T10:30:24.723Z,4.63
2022-08-16T10:32:51.826Z,4.55
2022-08-16T10:35:18.964Z,4.55
2022-08-16T10:37:45.381Z,4.60
2022-08-16T10:40:28.559Z,5.72
2022-08-16T10:42:57.929Z,4.95
2022-08-16T10:45:25.505Z,4.97
2022-08-16T10:48:00.615Z,4.95
2022-08-16T10:50:30.847Z,4.70
2022-08-16T10:52:59.233Z,5.68
2022-08-16T10:55:44.192Z,4.82
2022-08-16T10:58:12.987Z,5.43
2022-08-16T11:00:40.825Z,4.85
2022-08-16T11:03:42.474Z,5.18
2022-08-16T11:06:03.404Z,5.00
2022-08-16T11:08:35.678Z,5.10
2022-08-16T11:11:05.516Z,5.22
2022-08-16T11:17:02.234Z,4.63
2022-08-16T11:19:12.698Z,4.68
2022-08-16T11:22:22.993Z,4.55
2022-08-16T11:24:42.135Z,5.25
2022-08-16T11:27:23.948Z,4.47
2022-08-16T11:29:52.936Z,5.13
2022-08-16T11:32:31.277Z,5.18
2022-08-16T11:35:13.582Z,5.65
2022-08-16T11:40:32.898Z,5.03
2022-08-16T11:43:00.150Z,6.20
2022-08-16T11:45:27.028Z,4.82
2022-08-16T11:47:57.953Z,4.68
2022-08-16T11:50:24.540Z,4.80
2022-08-16T11:52:51.710Z,5.15
2022-08-16T11:55:18.645Z,4.57
2022-08-16T11:57:45.163Z,5.28
2022-08-16T12:00:33.761Z,5.15
2022-08-16T12:03:00.848Z,5.22
2022-08-16T12:05:27.885Z,4.90
2022-08-16T12:07:55.588Z,5.40
2022-08-16T12:10:25.901Z,5.38
2022-08-16T12:12:55.242Z,5.45
2022-08-16T12:15:26.497Z,5.60
2022-08-16T12:17:55.705Z,6.10
2022-08-16T12:20:26.004Z,5.88
2022-08-16T12:22:54.582Z,6.20
2022-08-16T12:25:21.755Z,6.13
2022-08-16T12:27:49.711Z,5.63
2022-08-16T12:30:21.248Z,5.03
2022-08-16T12:32:52.905Z,4.43
2022-08-16T12:35:21.962Z,4.70
2022-08-16T12:37:48.734Z,3.92
2022-08-16T12:40:24.824Z,3.92
2022-08-16T12:42:53.294Z,4.07
2022-08-16T12:45:20.901Z,4.07
2022-08-16T12:48:32.973Z,4.50
2022-08-16T12:50:53.090Z,4.18
2022-08-16T12:53:23.743Z,4.15
2022-08-16T12:55:50.573Z,4.03
2022-08-16T12:58:49.500Z,4.05
2022-08-16T13:01:07.228Z,3.80
2022-08-16T13:03:40.178Z,4.32
2022-08-16T13:06:07.149Z,4.80
2022-08-16T13:08:33.596Z,4.90
2022-08-16T13:11:00.683Z,4.70
2022-08-16T13:13:29.521Z,4.78
2022-08-16T13:16:03.636Z,4.82
2022-08-16T13:18:34.677Z,4.88
2022-08-16T13:21:04.939Z,5.13
2022-08-16T13:23:31.758Z,4.53
2022-08-16T13:25:58.575Z,4.72
2022-08-16T13:28:25.022Z,4.70
2022-08-16T13:30:52.728Z,4.80
2022-08-16T13:33:27.677Z,15.20
2022-08-16T13:35:58.043Z,23.52
2022-08-16T13:38:26.061Z,5.20
2022-08-16T13:40:55.879Z,4.63
2022-08-16T13:43:23.399Z,5.03
2022-08-16T13:45:50.503Z,4.07
2022-08-16T13:48:21.772Z,4.00
2022-08-16T13:50:52.341Z,4.15
2022-08-16T13:53:18.885Z,3.88
2022-08-16T13:55:58.775Z,4.68
2022-08-16T13:58:35.366Z,4.28
2022-08-16T14:01:04.625Z,4.10
2022-08-16T14:03:36.440Z,4.10
2022-08-16T14:06:03.867Z,3.95
2022-08-16T14:08:30.341Z,4.22
2022-08-16T14:10:56.753Z,4.00
2022-08-16T14:13:23.256Z,3.50
2022-08-16T14:15:49.729Z,3.85
2022-08-16T14:18:30.903Z,3.67
2022-08-16T14:20:58.539Z,3.47
2022-08-16T14:23:25.009Z,3.70
2022-08-16T14:25:53.932Z,4.05
2022-08-16T14:28:23.415Z,6.13
2022-08-16T14:30:50.642Z,3.45
2022-08-16T14:33:17.884Z,3.13
2022-08-16T14:35:50.316Z,3.55
2022-08-16T14:38:18.875Z,3.40
2022-08-16T14:40:50.999Z,2.88
2022-08-16T14:43:19.811Z,3.42
2022-08-16T14:45:46.263Z,3.10
2022-08-16T14:48:20.332Z,2.95
2022-08-16T14:50:51.128Z,2.47
2022-08-16T14:53:17.982Z,2.80
2022-08-16T14:55:44.362Z,3.00
2022-08-16T14:58:19.394Z,3.22
2022-08-16T15:00:47.108Z,3.20
2022-08-16T15:03:13.791Z,2.95
2022-08-16T15:05:41.506Z,3.42
2022-08-16T15:08:08.550Z,3.10
2022-08-16T15:10:37.381Z,2.97
2022-08-16T15:13:06.692Z,2.90
2022-08-16T15:15:35.921Z,5.15
2022-08-16T15:18:06.178Z,3.58
2022-08-16T15:20:36.772Z,3.00
2022-08-16T15:23:07.749Z,3.00
2022-08-16T15:25:35.881Z,3.13
2022-08-16T15:28:23.619Z,2.45
2022-08-16T15:30:59.738Z,2.95
2022-08-16T15:33:29.606Z,2.70
2022-08-16T15:35:58.807Z,2.90
2022-08-16T15:38:55.292Z,3.30
2022-08-16T15:41:28.291Z,3.60
2022-08-16T15:44:03.461Z,3.75
2022-08-16T15:46:54.083Z,3.58
2022-08-16T15:49:18.487Z,3.67
2022-08-16T15:51:45.362Z,3.30
2022-08-16T15:54:16.202Z,3.88
2022-08-16T15:56:56.880Z,3.30
2022-08-16T15:59:24.603Z,3.08
2022-08-16T16:01:54.039Z,3.10
2022-08-16T16:04:22.975Z,3.10
2022-08-16T16:06:55.135Z,3.30
2022-08-16T16:09:26.205Z,3.30
2022-08-16T16:12:11.949Z,3.40
2022-08-16T16:14:48.632Z,5.53
2022-08-16T16:17:17.423Z,6.80
2022-08-16T16:19:43.977Z,3.40
2022-08-16T16:22:10.819Z,3.33
2022-08-16T16:24:39.882Z,3.88
2022-08-16T16:27:06.613Z,2.90
2022-08-16T16:29:40.223Z,3.80
2022-08-16T16:32:07.663Z,3.33
2022-08-16T16:34:35.327Z,3.80
2022-08-16T16:37:02.651Z,3.95
2022-08-16T16:39:32.492Z,3.97
2022-08-16T16:41:59.598Z,3.42
2022-08-16T16:44:33.514Z,3.60
2022-08-16T16:47:00.419Z,4.10
2022-08-16T16:49:26.896Z,3.75
2022-08-16T16:51:55.209Z,3.60
2022-08-16T16:54:33.517Z,3.90
2022-08-16T16:57:00.925Z,3.60
2022-08-16T16:59:28.188Z,4.38
2022-08-16T17:01:59.684Z,14.35
2022-08-16T17:04:41.483Z,3.88
2022-08-16T17:07:11.005Z,3.53
2022-08-16T17:09:40.292Z,3.65
2022-08-16T17:12:07.822Z,3.65
2022-08-16T17:14:35.435Z,4.00
2022-08-16T17:17:08.475Z,4.32
2022-08-16T17:19:53.050Z,4.40
2022-08-16T17:22:21.550Z,4.00
2022-08-16T17:24:50.313Z,4.50
2022-08-16T17:27:34.011Z,4.55
2022-08-16T17:30:16.069Z,4.63
2022-08-16T17:32:47.760Z,4.47
2022-08-16T17:38:06.315Z,4.70
2022-08-16T17:39:27.208Z,4.32
2022-08-16T17:40:45.838Z,4.28
2022-08-16T17:43:23.658Z,5.30
2022-08-16T17:45:50.400Z,4.53
2022-08-16T17:48:17.075Z,4.90
2022-08-16T17:50:43.813Z,4.57
2022-08-16T17:53:12.977Z,4.18
2022-08-16T17:55:40.591Z,5.10
2022-08-16T17:58:23.541Z,5.00
2022-08-16T18:00:52.312Z,4.65
2022-08-16T18:03:40.853Z,4.50
2022-08-16T18:06:11.906Z,4.82
2022-08-16T18:08:39.065Z,5.47
2022-08-16T18:11:06.524Z,4.80
2022-08-16T18:13:34.418Z,5.03
2022-08-16T18:16:01.080Z,5.13
2022-08-16T18:18:27.792Z,5.32
2022-08-16T18:21:12.696Z,5.32
2022-08-16T18:23:39.215Z,5.25
2022-08-16T18:26:06.438Z,4.38
2022-08-16T18:28:34.886Z,5.70
2022-08-16T18:31:03.869Z,5.90
2022-08-16T18:33:32.175Z,5.72
2022-08-16T18:35:58.542Z,5.50
2022-08-16T18:38:25.238Z,6.28
2022-08-16T18:40:51.817Z,4.65
2022-08-16T18:43:19.660Z,5.63
2022-08-16T18:45:47.605Z,4.90
2022-08-16T18:48:14.569Z,5.68
2022-08-16T18:51:04.573Z,5.70
2022-08-16T18:53:28.241Z,6.05
2022-08-16T18:55:57.147Z,5.57
2022-08-16T18:58:24.077Z,5.50
2022-08-16T19:00:56.633Z,6.05
2022-08-16T19:03:25.710Z,6.15
2022-08-16T19:05:55.975Z,5.97
2022-08-16T19:08:22.875Z,5.70
2022-08-16T19:10:49.689Z,6.00
2022-08-16T19:13:18.159Z,6.20
2022-08-16T19:15:46.206Z,6.13
2022-08-16T19:18:13.208Z,6.85
2022-08-16T19:20:40.301Z,5.78
2022-08-16T19:23:11.183Z,6.95
2022-08-16T19:25:48.935Z,6.50
2022-08-16T19:28:51.824Z,6.20
2022-08-16T19:31:27.879Z,6.25
2022-08-16T19:33:56.412Z,7.13
2022-08-16T19:36:30.970Z,11.45
2022-08-16T19:39:04.527Z,7.93
2022-08-16T19:41:32.612Z,7.38
2022-08-16T19:43:58.996Z,7.07
2022-08-16T19:46:25.446Z,7.45
2022-08-16T19:48:51.881Z,7.82
2022-08-16T19:51:18.308Z,8.27
2022-08-16T19:53:44.771Z,7.28
2022-08-16T19:56:11.814Z,6.93
2022-08-16T19:58:50.912Z,7.40
2022-08-16T20:01:25.388Z,8.35
2022-08-16T20:03:51.985Z,9.10
2022-08-16T20:06:37.943Z,8.75
2022-08-16T20:09:04.856Z,8.07
2022-08-16T20:11:31.468Z,7.50
2022-08-16T20:13:57.855Z,8.48
2022-08-16T20:16:24.271Z,7.72
2022-08-16T20:18:50.871Z,7.90
2022-08-16T20:21:18.183Z,7.95
2022-08-16T20:23:44.555Z,8.25
2022-08-16T20:26:10.927Z,8.32
2022-08-16T20:28:52.149Z,7.43
2022-08-16T20:31:21.032Z,8.23
2022-08-16T20:33:47.439Z,8.25
2022-08-16T20:36:16.180Z,8.00
2022-08-16T20:38:45.839Z,8.73
2022-08-16T20:41:12.301Z,8.90
2022-08-16T20:43:38.733Z,8.07
2022-08-16T20:46:05.126Z,7.75
2022-08-16T20:48:31.511Z,7.63
2022-08-16T20:50:57.909Z,7.57
2022-08-16T20:53:24.282Z,8.23
2022-08-16T20:55:50.894Z,8.20
2022-08-16T20:58:17.372Z,7.85
2022-08-16T21:00:45.412Z,8.77
2022-08-16T21:03:12.726Z,8.55
2022-08-16T21:05:39.281Z,9.13
2022-08-16T21:08:27.946Z,8.55
2022-08-16T21:10:52.583Z,8.00
2022-08-16T21:13:20.828Z,8.40
2022-08-16T21:15:47.304Z,7.95
2022-08-16T21:18:13.724Z,8.27
2022-08-16T21:20:40.171Z,8.40
2022-08-16T21:23:08.821Z,8.77
2022-08-16T21:25:36.367Z,8.60
2022-08-16T21:28:40.921Z,8.88
2022-08-16T21:30:52.411Z,8.23
2022-08-16T21:33:19.139Z,8.30
2022-08-16T21:35:46.947Z,7.88
2022-08-16T21:38:28.856Z,8.65
2022-08-16T21:40:57.387Z,8.73
2022-08-16T21:43:27.673Z,8.45
2022-08-16T21:45:55.667Z,8.45
2022-08-16T21:48:34.464Z,9.10
2022-08-16T21:51:09.738Z,8.73
2022-08-16T21:53:37.724Z,9.65
2022-08-16T21:56:05.677Z,9.55
2022-08-16T21:58:32.112Z,9.38
2022-08-16T22:00:59.203Z,8.15
2022-08-16T22:03:25.662Z,8.15
2022-08-16T22:06:05.875Z,8.60
2022-08-16T22:08:49.411Z,9.05
2022-08-16T22:11:21.586Z,9.45
2022-08-16T22:13:51.207Z,10.02
2022-08-16T22:16:24.831Z,9.18
2022-08-16T22:18:52.513Z,9.68
2022-08-16T22:21:19.495Z,8.80
2022-08-16T22:23:45.928Z,9.73
2022-08-16T22:26:30.273Z,9.63
2022-08-16T22:28:57.898Z,8.73
2022-08-16T22:31:24.334Z,9.73
2022-08-16T22:33:50.735Z,9.57
2022-08-16T22:36:17.121Z,9.10
2022-08-16T22:38:55.751Z,10.05
2022-08-16T22:41:23.624Z,9.40
2022-08-16T22:43:50.068Z,8.98
2022-08-16T22:46:16.485Z,9.55
2022-08-16T22:48:43.149Z,9.23
2022-08-16T22:51:10.175Z,8.98
2022-08-16T22:53:37.511Z,10.23
2022-08-16T22:56:04.339Z,10.00
2022-08-16T22:58:36.573Z,10.25
2022-08-16T23:01:05.857Z,10.17
2022-08-16T23:03:32.647Z,11.20
2022-08-16T23:06:02.485Z,10.30
2022-08-16T23:08:35.050Z,9.27
2022-08-16T23:11:07.962Z,11.17
2022-08-16T23:13:34.648Z,10.67
2022-08-16T23:16:03.239Z,11.15
2022-08-16T23:18:38.220Z,10.50
2022-08-16T23:21:06.918Z,10.63
2022-08-16T23:23:33.306Z,10.40
2022-08-16T23:25:59.691Z,9.87
2022-08-16T23:28:27.400Z,11.27
2022-08-16T23:30:54.479Z,10.77
2022-08-16T23:33:21.258Z,11.20
2022-08-16T23:35:55.040Z,11.03
2022-08-16T23:38:37.610Z,10.77
2022-08-16T23:41:09.346Z,10.43
2022-08-16T23:43:43.039Z,10.80
2022-08-16T23:46:17.117Z,11.47
2022-08-16T23:49:58.705Z,11.83
2022-08-16T23:51:30.592Z,12.47
2022-08-16T23:53:57.120Z,11.67
2022-08-16T23:56:23.502Z,12.17
2022-08-16T23:58:53.684Z,10.13
